sensor_id;sensor_type;location;lat;lon;timestamp;pressure;altitude;pressure_sealevel;temperature;humidity
27144;BME280;14672;50.250;8.312;2023-09-19T00:00:46;98217.22;;;20.87;70.09
27144;BME280;14672;50.250;8.312;2023-09-19T00:03:15;98221.28;;;20.78;70.36
27144;BME280;14672;50.250;8.312;2023-09-19T00:05:41;98227.63;;;20.77;70.72
27144;BME280;14672;50.250;8.312;2023-09-19T00:08:10;98240.34;;;20.87;70.53
27144;BME280;14672;50.250;8.312;2023-09-19T00:10:39;98241.09;;;20.69;71.21
27144;BME280;14672;50.250;8.312;2023-09-19T00:13:06;98242.97;;;20.66;71.57
27144;BME280;14672;50.250;8.312;2023-09-19T00:15:39;98240.00;;;20.72;71.26
27144;BME280;14672;50.250;8.312;2023-09-19T00:18:06;98235.00;;;20.72;70.80
27144;BME280;14672;50.250;8.312;2023-09-19T00:20:35;98235.81;;;20.73;70.94
27144;BME280;14672;50.250;8.312;2023-09-19T00:23:02;98241.56;;;20.73;70.99
27144;BME280;14672;50.250;8.312;2023-09-19T00:25:37;98254.22;;;20.70;71.04
27144;BME280;14672;50.250;8.312;2023-09-19T00:28:04;98246.25;;;20.76;70.30
27144;BME280;14672;50.250;8.312;2023-09-19T00:30:31;98248.44;;;20.70;70.04
27144;BME280;14672;50.250;8.312;2023-09-19T00:32:57;98244.22;;;20.71;70.28
27144;BME280;14672;50.250;8.312;2023-09-19T00:35:22;98252.66;;;20.69;70.14
27144;BME280;14672;50.250;8.312;2023-09-19T00:37:52;98252.41;;;20.67;70.33
27144;BME280;14672;50.250;8.312;2023-09-19T00:40:18;98264.31;;;20.57;70.33
27144;BME280;14672;50.250;8.312;2023-09-19T00:42:46;98263.19;;;20.66;69.85
27144;BME280;14672;50.250;8.312;2023-09-19T00:45:14;98255.91;;;20.59;70.19
27144;BME280;14672;50.250;8.312;2023-09-19T00:47:50;98262.81;;;20.51;71.22
27144;BME280;14672;50.250;8.312;2023-09-19T00:50:23;98268.22;;;20.60;70.85
27144;BME280;14672;50.250;8.312;2023-09-19T00:52:54;98262.94;;;20.64;70.05
27144;BME280;14672;50.250;8.312;2023-09-19T00:55:24;98264.81;;;20.61;70.06
27144;BME280;14672;50.250;8.312;2023-09-19T00:57:50;98269.78;;;20.61;69.53
27144;BME280;14672;50.250;8.312;2023-09-19T01:00:17;98273.34;;;20.48;70.19
27144;BME280;14672;50.250;8.312;2023-09-19T01:02:45;98271.41;;;20.56;69.83
27144;BME280;14672;50.250;8.312;2023-09-19T01:05:12;98273.22;;;20.59;69.77
27144;BME280;14672;50.250;8.312;2023-09-19T01:07:38;98283.19;;;20.58;69.88
27144;BME280;14672;50.250;8.312;2023-09-19T01:10:13;98282.00;;;20.48;70.11
27144;BME280;14672;50.250;8.312;2023-09-19T01:21:26;98308.75;;;20.49;69.05
27144;BME280;14672;50.250;8.312;2023-09-19T01:24:25;98302.25;;;20.43;69.44
27144;BME280;14672;50.250;8.312;2023-09-19T01:27:14;98305.44;;;20.39;69.13
27144;BME280;14672;50.250;8.312;2023-09-19T01:29:46;98306.00;;;20.38;69.24
27144;BME280;14672;50.250;8.312;2023-09-19T01:32:21;98315.13;;;20.42;69.22
27144;BME280;14672;50.250;8.312;2023-09-19T01:34:56;98318.50;;;20.46;68.61
27144;BME280;14672;50.250;8.312;2023-09-19T01:37:25;98313.44;;;20.52;68.05
27144;BME280;14672;50.250;8.312;2023-09-19T01:40:02;98321.16;;;20.38;68.41
27144;BME280;14672;50.250;8.312;2023-09-19T01:43:05;98345.22;;;20.46;68.03
27144;BME280;14672;50.250;8.312;2023-09-19T01:46:04;98343.44;;;20.43;68.52
27144;BME280;14672;50.250;8.312;2023-09-19T01:51:26;98343.63;;;20.21;68.92
27144;BME280;14672;50.250;8.312;2023-09-19T01:54:26;98343.63;;;20.21;68.77
27144;BME280;14672;50.250;8.312;2023-09-19T02:00:08;98347.09;;;20.14;68.42
27144;BME280;14672;50.250;8.312;2023-09-19T02:02:40;98353.88;;;20.16;69.02
27144;BME280;14672;50.250;8.312;2023-09-19T02:05:08;98355.47;;;20.12;68.67
27144;BME280;14672;50.250;8.312;2023-09-19T02:07:34;98357.78;;;19.84;69.42
27144;BME280;14672;50.250;8.312;2023-09-19T02:10:07;98356.69;;;19.92;69.19
27144;BME280;14672;50.250;8.312;2023-09-19T02:12:33;98343.25;;;20.00;68.57
27144;BME280;14672;50.250;8.312;2023-09-19T02:15:01;98343.16;;;19.82;69.12
27144;BME280;14672;50.250;8.312;2023-09-19T02:17:27;98349.47;;;19.75;69.72
27144;BME280;14672;50.250;8.312;2023-09-19T02:19:55;98356.06;;;19.69;69.93
27144;BME280;14672;50.250;8.312;2023-09-19T02:22:22;98354.19;;;19.78;69.12
27144;BME280;14672;50.250;8.312;2023-09-19T02:24:50;98357.38;;;19.68;69.33
27144;BME280;14672;50.250;8.312;2023-09-19T02:27:16;98354.25;;;19.66;69.30
27144;BME280;14672;50.250;8.312;2023-09-19T02:29:45;98360.63;;;19.48;70.12
27144;BME280;14672;50.250;8.312;2023-09-19T02:32:12;98357.53;;;19.46;69.76
27144;BME280;14672;50.250;8.312;2023-09-19T02:34:38;98367.47;;;19.45;70.06
27144;BME280;14672;50.250;8.312;2023-09-19T02:37:05;98367.22;;;19.38;70.29
27144;BME280;14672;50.250;8.312;2023-09-19T02:39:32;98368.28;;;19.35;70.06
27144;BME280;14672;50.250;8.312;2023-09-19T02:41:58;98367.00;;;19.30;70.03
27144;BME280;14672;50.250;8.312;2023-09-19T02:44:23;98372.75;;;19.30;70.06
27144;BME280;14672;50.250;8.312;2023-09-19T02:46:50;98371.19;;;19.29;69.84
27144;BME280;14672;50.250;8.312;2023-09-19T02:49:16;98366.00;;;19.16;70.31
27144;BME280;14672;50.250;8.312;2023-09-19T02:51:44;98365.28;;;18.99;71.26
27144;BME280;14672;50.250;8.312;2023-09-19T02:54:10;98364.19;;;19.08;70.88
27144;BME280;14672;50.250;8.312;2023-09-19T02:56:37;98372.31;;;19.04;69.66
27144;BME280;14672;50.250;8.312;2023-09-19T02:59:03;98375.41;;;19.17;69.53
27144;BME280;14672;50.250;8.312;2023-09-19T03:01:29;98378.34;;;19.06;70.13
27144;BME280;14672;50.250;8.312;2023-09-19T03:03:55;98370.28;;;18.99;70.67
27144;BME280;14672;50.250;8.312;2023-09-19T03:06:21;98375.00;;;18.91;70.69
27144;BME280;14672;50.250;8.312;2023-09-19T03:08:48;98378.41;;;18.84;70.96
27144;BME280;14672;50.250;8.312;2023-09-19T03:11:15;98376.31;;;18.84;71.19
27144;BME280;14672;50.250;8.312;2023-09-19T03:13:44;98378.16;;;18.76;70.83
27144;BME280;14672;50.250;8.312;2023-09-19T03:16:11;98383.69;;;18.68;71.09
27144;BME280;14672;50.250;8.312;2023-09-19T03:18:37;98378.19;;;18.65;71.07
27144;BME280;14672;50.250;8.312;2023-09-19T03:21:03;98386.28;;;18.72;71.11
27144;BME280;14672;50.250;8.312;2023-09-19T03:23:29;98388.13;;;18.69;70.69
27144;BME280;14672;50.250;8.312;2023-09-19T03:25:56;98399.38;;;18.67;70.84
27144;BME280;14672;50.250;8.312;2023-09-19T03:28:23;98400.44;;;18.70;70.59
27144;BME280;14672;50.250;8.312;2023-09-19T03:31:03;98392.84;;;18.61;70.74
27144;BME280;14672;50.250;8.312;2023-09-19T03:33:29;98402.25;;;18.51;70.54
27144;BME280;14672;50.250;8.312;2023-09-19T03:36:01;98397.81;;;18.39;71.24
27144;BME280;14672;50.250;8.312;2023-09-19T03:38:30;98395.22;;;18.52;70.57
27144;BME280;14672;50.250;8.312;2023-09-19T03:40:57;98399.13;;;18.43;71.00
27144;BME280;14672;50.250;8.312;2023-09-19T03:43:22;98405.66;;;18.49;70.23
27144;BME280;14672;50.250;8.312;2023-09-19T03:45:48;98408.03;;;18.34;70.74
27144;BME280;14672;50.250;8.312;2023-09-19T03:48:15;98408.25;;;18.47;69.72
27144;BME280;14672;50.250;8.312;2023-09-19T03:50:41;98405.69;;;18.55;69.08
27144;BME280;14672;50.250;8.312;2023-09-19T03:53:07;98407.50;;;18.52;69.08
27144;BME280;14672;50.250;8.312;2023-09-19T03:55:33;98405.41;;;18.58;68.47
27144;BME280;14672;50.250;8.312;2023-09-19T03:58:05;98410.63;;;18.65;68.65
27144;BME280;14672;50.250;8.312;2023-09-19T04:00:31;98406.72;;;18.57;69.22
27144;BME280;14672;50.250;8.312;2023-09-19T04:02:57;98411.16;;;18.58;69.13
27144;BME280;14672;50.250;8.312;2023-09-19T04:05:23;98413.50;;;18.60;69.70
27144;BME280;14672;50.250;8.312;2023-09-19T04:07:49;98419.81;;;18.58;69.96
27144;BME280;14672;50.250;8.312;2023-09-19T04:10:16;98418.50;;;18.54;69.79
27144;BME280;14672;50.250;8.312;2023-09-19T04:12:54;98425.25;;;18.67;68.98
27144;BME280;14672;50.250;8.312;2023-09-19T04:15:20;98425.03;;;18.65;69.30
27144;BME280;14672;50.250;8.312;2023-09-19T04:17:52;98421.63;;;18.61;68.73
27144;BME280;14672;50.250;8.312;2023-09-19T04:20:18;98419.25;;;18.76;68.74
27144;BME280;14672;50.250;8.312;2023-09-19T04:22:50;98428.66;;;18.77;68.46
27144;BME280;14672;50.250;8.312;2023-09-19T04:25:16;98424.22;;;18.82;68.24
27144;BME280;14672;50.250;8.312;2023-09-19T04:27:44;98421.56;;;18.84;68.51
27144;BME280;14672;50.250;8.312;2023-09-19T04:30:10;98426.03;;;18.90;68.40
27144;BME280;14672;50.250;8.312;2023-09-19T04:32:38;98422.63;;;18.81;68.81
27144;BME280;14672;50.250;8.312;2023-09-19T04:35:10;98438.34;;;18.91;67.81
27144;BME280;14672;50.250;8.312;2023-09-19T04:37:40;98438.59;;;18.82;67.95
27144;BME280;14672;50.250;8.312;2023-09-19T04:40:10;98436.22;;;18.97;67.70
27144;BME280;14672;50.250;8.312;2023-09-19T04:42:45;98444.09;;;18.91;67.66
27144;BME280;14672;50.250;8.312;2023-09-19T04:45:11;98436.72;;;18.95;67.18
27144;BME280;14672;50.250;8.312;2023-09-19T04:47:38;98434.38;;;18.88;67.89
27144;BME280;14672;50.250;8.312;2023-09-19T04:50:09;98442.75;;;18.92;67.98
27144;BME280;14672;50.250;8.312;2023-09-19T04:52:42;98439.38;;;18.88;68.42
27144;BME280;14672;50.250;8.312;2023-09-19T04:55:15;98436.50;;;18.76;68.58
27144;BME280;14672;50.250;8.312;2023-09-19T05:00:16;98449.31;;;18.87;68.75
27144;BME280;14672;50.250;8.312;2023-09-19T05:02:46;98443.31;;;18.90;67.92
27144;BME280;14672;50.250;8.312;2023-09-19T05:05:14;98446.44;;;18.81;68.54
27144;BME280;14672;50.250;8.312;2023-09-19T05:07:42;98445.94;;;18.77;68.56
27144;BME280;14672;50.250;8.312;2023-09-19T05:10:09;98450.91;;;18.76;68.59
27144;BME280;14672;50.250;8.312;2023-09-19T05:12:35;98456.41;;;18.69;69.00
27144;BME280;14672;50.250;8.312;2023-09-19T05:15:05;98453.25;;;18.72;69.33
27144;BME280;14672;50.250;8.312;2023-09-19T05:17:35;98468.69;;;18.69;68.93
27144;BME280;14672;50.250;8.312;2023-09-19T05:20:02;98460.31;;;18.60;69.06
27144;BME280;14672;50.250;8.312;2023-09-19T05:22:41;98463.72;;;18.64;68.84
27144;BME280;14672;50.250;8.312;2023-09-19T05:25:11;98470.53;;;18.61;68.82
27144;BME280;14672;50.250;8.312;2023-09-19T05:27:43;98463.22;;;18.60;68.72
27144;BME280;14672;50.250;8.312;2023-09-19T05:30:09;98463.22;;;18.55;69.10
27144;BME280;14672;50.250;8.312;2023-09-19T05:32:35;98472.38;;;18.59;69.54
27144;BME280;14672;50.250;8.312;2023-09-19T05:35:01;98460.03;;;18.47;70.06
27144;BME280;14672;50.250;8.312;2023-09-19T05:37:27;98467.41;;;18.54;69.56
27144;BME280;14672;50.250;8.312;2023-09-19T05:39:52;98470.22;;;18.48;69.93
27144;BME280;14672;50.250;8.312;2023-09-19T05:42:21;98471.81;;;18.38;69.88
27144;BME280;14672;50.250;8.312;2023-09-19T05:44:46;98465.53;;;18.45;69.89
27144;BME280;14672;50.250;8.312;2023-09-19T05:47:12;98467.38;;;18.43;69.82
27144;BME280;14672;50.250;8.312;2023-09-19T05:49:38;98480.16;;;18.47;69.37
27144;BME280;14672;50.250;8.312;2023-09-19T05:52:08;98472.06;;;18.46;69.93
27144;BME280;14672;50.250;8.312;2023-09-19T05:54:33;98473.09;;;18.48;70.05
27144;BME280;14672;50.250;8.312;2023-09-19T05:57:00;98475.47;;;18.44;70.32
27144;BME280;14672;50.250;8.312;2023-09-19T05:59:27;98478.88;;;18.37;70.58
27144;BME280;14672;50.250;8.312;2023-09-19T06:01:53;98480.16;;;18.36;70.37
27144;BME280;14672;50.250;8.312;2023-09-19T06:04:19;98491.66;;;18.47;70.24
27144;BME280;14672;50.250;8.312;2023-09-19T06:06:45;98500.09;;;18.56;69.53
27144;BME280;14672;50.250;8.312;2023-09-19T06:09:14;98494.81;;;18.49;70.25
27144;BME280;14672;50.250;8.312;2023-09-19T06:11:42;98489.63;;;18.53;70.36
27144;BME280;14672;50.250;8.312;2023-09-19T06:14:08;98498.00;;;18.62;70.05
27144;BME280;14672;50.250;8.312;2023-09-19T06:16:36;98505.59;;;18.54;70.43
27144;BME280;14672;50.250;8.312;2023-09-19T06:19:03;98513.16;;;18.57;70.08
27144;BME280;14672;50.250;8.312;2023-09-19T06:21:32;98514.47;;;18.62;70.18
27144;BME280;14672;50.250;8.312;2023-09-19T06:23:58;98516.56;;;18.61;70.54
27144;BME280;14672;50.250;8.312;2023-09-19T06:26:24;98528.09;;;18.61;70.62
27144;BME280;14672;50.250;8.312;2023-09-19T06:28:55;98523.13;;;18.62;70.17
27144;BME280;14672;50.250;8.312;2023-09-19T06:31:21;98521.03;;;18.62;70.29
27144;BME280;14672;50.250;8.312;2023-09-19T06:33:52;98516.31;;;18.54;71.05
27144;BME280;14672;50.250;8.312;2023-09-19T06:36:18;98515.78;;;18.55;71.26
27144;BME280;14672;50.250;8.312;2023-09-19T06:38:45;98525.47;;;18.74;70.06
27144;BME280;14672;50.250;8.312;2023-09-19T06:41:10;98533.84;;;18.72;69.80
27144;BME280;14672;50.250;8.312;2023-09-19T06:43:38;98533.06;;;18.89;69.19
27144;BME280;14672;50.250;8.312;2023-09-19T06:46:04;98533.59;;;18.82;68.85
27144;BME280;14672;50.250;8.312;2023-09-19T06:48:32;98544.56;;;18.89;68.41
27144;BME280;14672;50.250;8.312;2023-09-19T06:50:59;98554.50;;;18.88;68.27
27144;BME280;14672;50.250;8.312;2023-09-19T06:53:33;98551.09;;;19.00;68.13
27144;BME280;14672;50.250;8.312;2023-09-19T06:56:00;98562.88;;;19.02;68.33
27144;BME280;14672;50.250;8.312;2023-09-19T06:58:26;98569.41;;;19.14;66.71
27144;BME280;14672;50.250;8.312;2023-09-19T07:00:51;98567.06;;;19.18;66.28
27144;BME280;14672;50.250;8.312;2023-09-19T07:03:17;98558.94;;;19.16;65.81
27144;BME280;14672;50.250;8.312;2023-09-19T07:05:44;98568.63;;;19.19;65.89
27144;BME280;14672;50.250;8.312;2023-09-19T07:08:10;98567.56;;;19.11;65.57
27144;BME280;14672;50.250;8.312;2023-09-19T07:10:38;98584.88;;;19.22;64.89
27144;BME280;14672;50.250;8.312;2023-09-19T07:13:15;98581.19;;;19.21;64.46
27144;BME280;14672;50.250;8.312;2023-09-19T07:15:43;98585.13;;;19.13;65.28
27144;BME280;14672;50.250;8.312;2023-09-19T07:18:14;98592.16;;;19.23;64.89
27144;BME280;14672;50.250;8.312;2023-09-19T07:20:41;98587.47;;;19.37;64.68
27144;BME280;14672;50.250;8.312;2023-09-19T07:23:18;98596.88;;;19.37;64.64
27144;BME280;14672;50.250;8.312;2023-09-19T07:25:44;98584.31;;;19.40;64.10
27144;BME280;14672;50.250;8.312;2023-09-19T07:28:12;98595.06;;;19.45;64.39
27144;BME280;14672;50.250;8.312;2023-09-19T07:30:38;98611.03;;;19.57;63.87
27144;BME280;14672;50.250;8.312;2023-09-19T07:33:05;98597.66;;;19.60;63.63
27144;BME280;14672;50.250;8.312;2023-09-19T07:35:32;98601.31;;;19.60;62.79
27144;BME280;14672;50.250;8.312;2023-09-19T07:37:58;98602.91;;;19.34;63.48
27144;BME280;14672;50.250;8.312;2023-09-19T07:40:24;98601.88;;;19.48;62.92
27144;BME280;14672;50.250;8.312;2023-09-19T07:42:58;98601.59;;;19.62;62.56
27144;BME280;14672;50.250;8.312;2023-09-19T07:45:28;98607.34;;;19.62;62.21
27144;BME280;14672;50.250;8.312;2023-09-19T07:47:56;98612.06;;;19.65;61.77
27144;BME280;14672;50.250;8.312;2023-09-19T07:50:22;98614.69;;;19.52;60.89
27144;BME280;14672;50.250;8.312;2023-09-19T07:52:49;98610.25;;;19.46;59.97
27144;BME280;14672;50.250;8.312;2023-09-19T07:55:19;98623.88;;;19.45;60.03
27144;BME280;14672;50.250;8.312;2023-09-19T07:57:48;98616.25;;;19.64;59.67
27144;BME280;14672;50.250;8.312;2023-09-19T08:00:15;98629.38;;;19.43;60.20
27144;BME280;14672;50.250;8.312;2023-09-19T08:02:42;98622.81;;;19.59;60.51
27144;BME280;14672;50.250;8.312;2023-09-19T08:05:10;98618.09;;;19.62;60.01
27144;BME280;14672;50.250;8.312;2023-09-19T08:07:38;98624.66;;;19.62;59.19
27144;BME280;14672;50.250;8.312;2023-09-19T08:10:05;98628.06;;;19.61;58.95
27144;BME280;14672;50.250;8.312;2023-09-19T08:12:43;98632.78;;;19.53;59.07
27144;BME280;14672;50.250;8.312;2023-09-19T08:15:16;98629.34;;;19.60;58.28
27144;BME280;14672;50.250;8.312;2023-09-19T08:17:43;98637.69;;;19.75;57.79
27144;BME280;14672;50.250;8.312;2023-09-19T08:20:10;98637.69;;;19.80;57.63
27144;BME280;14672;50.250;8.312;2023-09-19T08:22:44;98646.59;;;19.88;58.23
27144;BME280;14672;50.250;8.312;2023-09-19T08:25:14;98635.59;;;19.81;58.09
27144;BME280;14672;50.250;8.312;2023-09-19T08:27:42;98643.69;;;19.88;57.30
27144;BME280;14672;50.250;8.312;2023-09-19T08:30:10;98644.50;;;19.94;57.48
27144;BME280;14672;50.250;8.312;2023-09-19T08:32:36;98641.81;;;20.07;57.20
27144;BME280;14672;50.250;8.312;2023-09-19T08:35:02;98637.94;;;19.93;56.86
27144;BME280;14672;50.250;8.312;2023-09-19T08:37:30;98638.41;;;20.03;56.57
27144;BME280;14672;50.250;8.312;2023-09-19T08:39:55;98654.91;;;20.08;56.04
27144;BME280;14672;50.250;8.312;2023-09-19T08:42:21;98665.50;;;19.78;54.30
27144;BME280;14672;50.250;8.312;2023-09-19T08:44:50;98641.88;;;19.85;54.55
27144;BME280;14672;50.250;8.312;2023-09-19T08:47:16;98641.34;;;19.97;53.67
27144;BME280;14672;50.250;8.312;2023-09-19T08:50:11;98641.91;;;19.68;54.47
27144;BME280;14672;50.250;8.312;2023-09-19T08:52:43;98654.97;;;20.02;54.98
27144;BME280;14672;50.250;8.312;2023-09-19T08:55:15;98655.19;;;19.99;54.79
27144;BME280;14672;50.250;8.312;2023-09-19T08:57:49;98664.44;;;19.81;54.65
27144;BME280;14672;50.250;8.312;2023-09-19T09:00:17;98654.16;;;20.02;53.99
27144;BME280;14672;50.250;8.312;2023-09-19T09:02:44;98655.69;;;20.14;53.51
27144;BME280;14672;50.250;8.312;2023-09-19T09:05:11;98652.31;;;20.10;54.19
27144;BME280;14672;50.250;8.312;2023-09-19T09:07:43;98666.97;;;20.12;53.31
27144;BME280;14672;50.250;8.312;2023-09-19T09:10:10;98657.78;;;20.13;52.91
27144;BME280;14672;50.250;8.312;2023-09-19T09:12:36;98660.88;;;20.27;52.63
27144;BME280;14672;50.250;8.312;2023-09-19T09:15:07;98654.09;;;20.18;52.05
27144;BME280;14672;50.250;8.312;2023-09-19T09:17:34;98645.94;;;20.28;52.42
27144;BME280;14672;50.250;8.312;2023-09-19T09:20:00;98652.19;;;20.43;52.16
27144;BME280;14672;50.250;8.312;2023-09-19T09:22:26;98665.28;;;20.50;52.45
27144;BME280;14672;50.250;8.312;2023-09-19T09:24:59;98664.69;;;20.62;51.91
27144;BME280;14672;50.250;8.312;2023-09-19T09:27:29;98669.50;;;20.43;51.01
27144;BME280;14672;50.250;8.312;2023-09-19T09:29:55;98667.69;;;20.35;51.08
27144;BME280;14672;50.250;8.312;2023-09-19T09:32:30;98670.56;;;20.40;51.74
27144;BME280;14672;50.250;8.312;2023-09-19T09:35:01;98664.38;;;20.72;51.69
27144;BME280;14672;50.250;8.312;2023-09-19T09:37:28;98662.13;;;20.94;50.66
27144;BME280;14672;50.250;8.312;2023-09-19T09:39:58;98658.41;;;21.05;50.55
27144;BME280;14672;50.250;8.312;2023-09-19T09:42:45;98669.16;;;21.04;50.96
27144;BME280;14672;50.250;8.312;2023-09-19T09:45:25;98665.44;;;21.09;51.01
27144;BME280;14672;50.250;8.312;2023-09-19T09:48:03;98665.56;;;21.34;50.10
27144;BME280;14672;50.250;8.312;2023-09-19T09:50:34;98662.25;;;21.78;49.17
27144;BME280;14672;50.250;8.312;2023-09-19T09:53:27;98667.91;;;21.65;49.34
27144;BME280;14672;50.250;8.312;2023-09-19T09:56:07;98666.25;;;22.24;47.76
27144;BME280;14672;50.250;8.312;2023-09-19T09:58:53;98667.88;;;21.95;47.91
27144;BME280;14672;50.250;8.312;2023-09-19T10:01:21;98666.59;;;22.58;46.22
27144;BME280;14672;50.250;8.312;2023-09-19T10:03:57;98658.03;;;22.89;45.31
27144;BME280;14672;50.250;8.312;2023-09-19T10:06:23;98665.09;;;23.13;44.13
27144;BME280;14672;50.250;8.312;2023-09-19T10:11:41;98652.06;;;23.19;45.11
27144;BME280;14672;50.250;8.312;2023-09-19T10:14:16;98641.13;;;23.12;45.18
27144;BME280;14672;50.250;8.312;2023-09-19T10:16:49;98646.19;;;23.25;45.18
27144;BME280;14672;50.250;8.312;2023-09-19T10:19:30;98657.28;;;22.89;44.47
27144;BME280;14672;50.250;8.312;2023-09-19T10:22:02;98656.03;;;22.84;44.62
27144;BME280;14672;50.250;8.312;2023-09-19T10:24:30;98657.66;;;22.99;44.36
27144;BME280;14672;50.250;8.312;2023-09-19T10:26:59;98653.81;;;22.90;43.36
27144;BME280;14672;50.250;8.312;2023-09-19T10:29:28;98654.94;;;22.69;43.96
27144;BME280;14672;50.250;8.312;2023-09-19T10:31:58;98651.56;;;22.83;44.34
27144;BME280;14672;50.250;8.312;2023-09-19T10:34:25;98656.53;;;22.64;44.12
27144;BME280;14672;50.250;8.312;2023-09-19T10:36:53;98654.09;;;22.49;44.44
27144;BME280;14672;50.250;8.312;2023-09-19T10:39:19;98644.88;;;22.70;44.61
27144;BME280;14672;50.250;8.312;2023-09-19T10:41:51;98651.47;;;22.89;44.95
27144;BME280;14672;50.250;8.312;2023-09-19T10:44:23;98651.94;;;22.74;43.61
27144;BME280;14672;50.250;8.312;2023-09-19T10:46:52;98648.66;;;22.83;43.16
27144;BME280;14672;50.250;8.312;2023-09-19T10:49:20;98643.00;;;22.91;42.26
27144;BME280;14672;50.250;8.312;2023-09-19T10:51:49;98653.88;;;23.04;42.89
27144;BME280;14672;50.250;8.312;2023-09-19T10:54:20;98654.44;;;23.02;43.62
27144;BME280;14672;50.250;8.312;2023-09-19T10:56:50;98647.66;;;23.31;42.93
27144;BME280;14672;50.250;8.312;2023-09-19T10:59:21;98642.63;;;23.32;43.01
27144;BME280;14672;50.250;8.312;2023-09-19T11:01:52;98648.91;;;23.36;43.00
27144;BME280;14672;50.250;8.312;2023-09-19T11:07:19;98636.84;;;23.32;43.72
27144;BME280;14672;50.250;8.312;2023-09-19T11:09:56;98635.66;;;22.90;43.18
27144;BME280;14672;50.250;8.312;2023-09-19T11:26:45;98612.72;;;23.69;41.18
27144;BME280;14672;50.250;8.312;2023-09-19T11:29:32;98611.00;;;23.92;40.62
27144;BME280;14672;50.250;8.312;2023-09-19T11:31:59;98607.19;;;23.84;39.57
27144;BME280;14672;50.250;8.312;2023-09-19T11:34:41;98599.72;;;23.75;39.42
27144;BME280;14672;50.250;8.312;2023-09-19T11:39:38;98616.13;;;23.86;39.40
27144;BME280;14672;50.250;8.312;2023-09-19T11:48:06;98611.19;;;24.60;39.10
27144;BME280;14672;50.250;8.312;2023-09-19T11:50:34;98597.69;;;24.49;38.17
27144;BME280;14672;50.250;8.312;2023-09-19T11:53:02;98614.53;;;24.64;38.28
27144;BME280;14672;50.250;8.312;2023-09-19T11:55:28;98593.94;;;24.88;37.97
27144;BME280;14672;50.250;8.312;2023-09-19T11:57:58;98610.00;;;25.44;37.31
27144;BME280;14672;50.250;8.312;2023-09-19T12:00:25;98605.44;;;25.14;37.34
27144;BME280;14672;50.250;8.312;2023-09-19T12:02:55;98607.91;;;25.10;36.92
27144;BME280;14672;50.250;8.312;2023-09-19T12:05:31;98604.75;;;25.42;36.34
27144;BME280;14672;50.250;8.312;2023-09-19T12:07:59;98610.81;;;25.10;36.42
27144;BME280;14672;50.250;8.312;2023-09-19T12:10:25;98600.38;;;24.81;36.52
27144;BME280;14672;50.250;8.312;2023-09-19T12:12:52;98604.97;;;25.65;35.55
27144;BME280;14672;50.250;8.312;2023-09-19T12:15:25;98591.34;;;25.88;35.40
27144;BME280;14672;50.250;8.312;2023-09-19T12:18:00;98593.38;;;26.01;35.41
27144;BME280;14672;50.250;8.312;2023-09-19T12:20:44;98599.47;;;25.82;35.55
27144;BME280;14672;50.250;8.312;2023-09-19T12:23:15;98590.53;;;26.08;35.23
27144;BME280;14672;50.250;8.312;2023-09-19T12:25:42;98584.56;;;26.14;35.48
27144;BME280;14672;50.250;8.312;2023-09-19T12:28:12;98594.78;;;26.36;35.06
27144;BME280;14672;50.250;8.312;2023-09-19T12:30:38;98579.25;;;26.05;35.08
27144;BME280;14672;50.250;8.312;2023-09-19T12:33:19;98589.31;;;26.04;35.58
27144;BME280;14672;50.250;8.312;2023-09-19T12:35:51;98575.47;;;25.89;35.78
27144;BME280;14672;50.250;8.312;2023-09-19T12:40:51;98571.81;;;26.68;34.68
27144;BME280;14672;50.250;8.312;2023-09-19T12:43:18;98591.16;;;26.94;34.31
27144;BME280;14672;50.250;8.312;2023-09-19T12:45:44;98576.63;;;26.58;34.59
27144;BME280;14672;50.250;8.312;2023-09-19T12:48:26;98562.25;;;25.88;35.58
27144;BME280;14672;50.250;8.312;2023-09-19T12:53:33;98572.88;;;25.78;36.19
27144;BME280;14672;50.250;8.312;2023-09-19T12:56:01;98562.06;;;25.86;36.04
27144;BME280;14672;50.250;8.312;2023-09-19T12:58:28;98563.84;;;25.68;37.29
27144;BME280;14672;50.250;8.312;2023-09-19T13:00:57;98562.03;;;26.14;37.05
27144;BME280;14672;50.250;8.312;2023-09-19T13:03:29;98560.28;;;25.55;37.43
27144;BME280;14672;50.250;8.312;2023-09-19T13:06:03;98565.56;;;25.64;37.71
27144;BME280;14672;50.250;8.312;2023-09-19T13:08:39;98555.19;;;25.76;37.54
27144;BME280;14672;50.250;8.312;2023-09-19T13:13:50;98560.00;;;26.30;37.07
27144;BME280;14672;50.250;8.312;2023-09-19T13:16:20;98558.72;;;25.82;37.23
27144;BME280;14672;50.250;8.312;2023-09-19T13:18:55;98561.84;;;25.84;37.10
27144;BME280;14672;50.250;8.312;2023-09-19T13:21:30;98565.53;;;25.85;36.73
27144;BME280;14672;50.250;8.312;2023-09-19T13:24:23;98555.09;;;25.89;37.41
27144;BME280;14672;50.250;8.312;2023-09-19T13:26:53;98561.59;;;25.12;37.84
27144;BME280;14672;50.250;8.312;2023-09-19T13:29:18;98555.25;;;25.84;37.94
27144;BME280;14672;50.250;8.312;2023-09-19T13:31:52;98558.41;;;25.65;37.78
27144;BME280;14672;50.250;8.312;2023-09-19T13:34:21;98539.06;;;26.03;37.93
27144;BME280;14672;50.250;8.312;2023-09-19T13:36:47;98554.09;;;26.51;37.35
27144;BME280;14672;50.250;8.312;2023-09-19T13:39:17;98542.94;;;26.34;37.12
27144;BME280;14672;50.250;8.312;2023-09-19T13:41:47;98545.94;;;26.57;36.73
27144;BME280;14672;50.250;8.312;2023-09-19T13:44:14;98543.75;;;26.42;37.08
27144;BME280;14672;50.250;8.312;2023-09-19T13:46:40;98554.63;;;26.42;36.44
27144;BME280;14672;50.250;8.312;2023-09-19T13:49:12;98540.44;;;26.97;36.21
27144;BME280;14672;50.250;8.312;2023-09-19T13:51:37;98548.41;;;27.04;36.93
27144;BME280;14672;50.250;8.312;2023-09-19T13:54:03;98543.63;;;26.63;37.06
27144;BME280;14672;50.250;8.312;2023-09-19T13:56:29;98534.03;;;27.06;36.90
27144;BME280;14672;50.250;8.312;2023-09-19T13:58:56;98537.44;;;26.74;36.49
27144;BME280;14672;50.250;8.312;2023-09-19T14:01:22;98529.94;;;26.86;36.84
27144;BME280;14672;50.250;8.312;2023-09-19T14:03:48;98525.03;;;26.81;36.03
27144;BME280;14672;50.250;8.312;2023-09-19T14:06:17;98538.69;;;26.35;37.08